Aviation Digital Data Service (ADDS)

Output produced by METARs form (1711 UTC 26 July 2014)
found at http://aviationweather.gov/adds/metars/
 
KCRG 261120Z 2612/2712 24004KT P6SM FEW025 BKN250 
     FM261700 23008KT P6SM VCTS SCT040CB 
     FM270100 21004KT P6SM SCT040 SCT080 BKN250